Time;durP1;ratioP1;P1;durP2;ratioP2;P2;SDS_P1;SDS_P2;PMS_P1;PMS_P2;Temp;Humidity;BMP_temperature;BMP_pressure;BME280_temperature;BME280_humidity;BME280_pressure;Samples;Min_cycle;Max_cycle;Signal;HPM_P1;HPM_P2
2022/03/18 00:02:31;;;;;;;0.75;0.75;;;;;;;7.27;60.25;103223.22;5164251;28;20565;-78
2022/03/18 00:05:05;;;;;;;0.63;0.63;;;;;;;7.25;60.05;103220.53;5152594;28;20081;-78
2022/03/18 00:07:35;;;;;;;2.17;1.63;;;;;;;7.24;60.41;103225.72;5162335;28;20081;-79
2022/03/18 00:10:07;;;;;;;1.65;1.55;;;;;;;7.23;60.28;103222.22;5163154;28;20030;-79
2022/03/18 00:12:37;;;;;;;3.00;2.22;;;;;;;7.22;60.05;103225.69;5160200;28;20046;-79
2022/03/18 00:15:10;;;;;;;0.80;0.63;;;;;;;7.14;60.13;103228.94;5166930;28;20337;-79
2022/03/18 00:17:41;;;;;;;0.40;0.40;;;;;;;7.11;59.85;103228.88;5164120;28;20130;-79
2022/03/18 00:20:13;;;;;;;0.73;0.73;;;;;;;7.08;60.13;103227.03;5185870;28;20030;-79
2022/03/18 00:22:44;;;;;;;7.68;2.13;;;;;;;7.09;60.39;103228.78;5189518;28;20053;-79
2022/03/18 00:25:17;;;;;;;0.55;0.55;;;;;;;7.04;60.10;103235.63;5192317;28;20076;-79
2022/03/18 00:27:48;;;;;;;0.40;0.40;;;;;;;7.02;60.48;103238.22;5168194;28;20030;-78
2022/03/18 00:30:18;;;;;;;1.33;1.33;;;;;;;6.95;59.98;103236.22;5169601;28;20234;-79
2022/03/18 00:32:51;;;;;;;0.50;0.50;;;;;;;6.98;60.15;103235.47;5169052;28;20065;-76
2022/03/18 00:35:22;;;;;;;0.50;0.50;;;;;;;6.96;60.46;103235.41;5165750;28;20402;-76
2022/03/18 00:37:52;;;;;;;2.78;1.50;;;;;;;6.96;59.98;103231.91;5165499;28;20053;-79
2022/03/18 00:40:25;;;;;;;2.20;1.80;;;;;;;6.96;59.60;103232.78;5164500;28;20038;-76
2022/03/18 00:42:56;;;;;;;0.85;0.85;;;;;;;6.88;60.00;103236.91;5150381;28;20569;-76
2022/03/18 00:45:27;;;;;;;0.77;0.77;;;;;;;6.77;59.98;103231.38;5181652;28;20137;-77
2022/03/18 00:53:36;;;;;;;0.50;0.50;;;;;;;6.77;60.02;103237.50;5165888;28;20523;-78
2022/03/18 00:56:12;;;;;;;3.03;1.55;;;;;;;6.80;60.23;103239.31;5165778;28;20274;-76
2022/03/18 00:58:43;;;;;;;0.52;0.52;;;;;;;6.75;60.24;103238.28;5168893;28;20054;-77
2022/03/18 01:01:13;;;;;;;0.68;0.68;;;;;;;6.72;60.15;103246.03;5163547;28;20050;-77
2022/03/18 01:03:44;;;;;;;0.93;0.93;;;;;;;6.67;60.35;103245.91;5165335;28;20370;-77
2022/03/18 01:06:14;;;;;;;0.93;0.93;;;;;;;6.69;60.19;103253.75;5166454;28;20036;-77
2022/03/18 01:08:45;;;;;;;0.30;0.30;;;;;;;6.70;60.51;103250.31;5157421;28;20494;-77
2022/03/18 01:11:15;;;;;;;0.82;0.82;;;;;;;6.73;60.88;103255.63;5171651;28;20049;-77
2022/03/18 01:13:46;;;;;;;2.00;1.90;;;;;;;6.72;61.02;103251.25;5158035;28;20034;-77
2022/03/18 01:16:16;;;;;;;0.77;0.60;;;;;;;6.66;61.00;103257.16;5140656;28;20030;-77
2022/03/18 01:18:47;;;;;;;0.82;0.82;;;;;;;6.57;60.55;103262.97;5166409;28;20089;-77
2022/03/18 01:21:17;;;;;;;0.88;0.88;;;;;;;6.55;60.57;103256.84;5167539;28;20394;-77
2022/03/18 01:23:48;;;;;;;1.20;0.95;;;;;;;6.55;60.58;103263.78;5172268;28;20547;-77
2022/03/18 01:26:18;;;;;;;3.92;1.35;;;;;;;6.55;60.57;103261.16;5164396;28;20034;-77
2022/03/18 01:28:48;;;;;;;0.75;0.75;;;;;;;6.54;60.85;103262.91;5166699;28;20035;-78
2022/03/18 01:31:19;;;;;;;1.02;1.02;;;;;;;6.54;60.42;103268.13;5156285;28;20034;-77
2022/03/18 01:33:50;;;;;;;0.93;0.93;;;;;;;6.51;60.66;103268.00;5170164;28;20049;-77
2022/03/18 01:36:21;;;;;;;0.63;0.63;;;;;;;6.53;61.08;103266.34;5150722;28;20034;-77
2022/03/18 01:38:51;;;;;;;1.35;1.35;;;;;;;6.49;60.77;103263.59;5167373;28;20057;-77
2022/03/18 01:41:22;;;;;;;0.63;0.63;;;;;;;6.46;60.42;103260.03;5168202;28;20297;-78
2022/03/18 01:43:53;;;;;;;0.68;0.68;;;;;;;6.46;60.67;103267.88;5169413;28;20042;-77
2022/03/18 01:46:24;;;;;;;0.70;0.70;;;;;;;6.44;60.71;103268.66;5162042;28;20026;-77
2022/03/18 01:48:55;;;;;;;1.55;1.45;;;;;;;6.45;60.88;103265.22;5148955;28;20140;-77
2022/03/18 01:51:25;;;;;;;1.38;1.08;;;;;;;6.46;60.98;103277.44;5158195;28;20350;-77
2022/03/18 01:56:45;;;;;;;8.30;1.70;;;;;;;6.39;61.44;103278.06;5182134;28;20043;-77
2022/03/18 01:59:16;;;;;;;0.70;0.70;;;;;;;6.35;60.45;103284.91;5157412;28;20032;-77
2022/03/18 02:01:46;;;;;;;1.20;1.10;;;;;;;6.35;60.45;103278.81;5168717;28;20069;-77
2022/03/18 02:04:17;;;;;;;0.85;0.85;;;;;;;6.30;60.94;103284.78;5163263;28;20030;-77
2022/03/18 02:06:49;;;;;;;0.47;0.47;;;;;;;6.28;60.83;103294.25;5171308;28;20144;-78
2022/03/18 02:09:20;;;;;;;1.17;1.15;;;;;;;6.24;60.53;103292.38;5168413;28;20034;-77
2022/03/18 02:11:50;;;;;;;0.93;0.93;;;;;;;6.21;60.62;103289.69;5169348;28;20042;-77
2022/03/18 02:14:34;;;;;;;1.10;1.05;;;;;;;6.17;60.83;103303.44;5174413;28;20037;-77
2022/03/18 02:17:07;;;;;;;0.73;0.73;;;;;;;6.17;60.51;103311.25;5175812;28;20060;-77
2022/03/18 02:19:40;;;;;;;0.60;0.60;;;;;;;6.14;60.28;103311.19;5170894;28;20018;-77
2022/03/18 02:22:12;;;;;;;1.05;1.05;;;;;;;6.10;60.86;103311.91;5160778;28;20045;-77
2022/03/18 02:24:45;;;;;;;0.70;0.70;;;;;;;6.08;60.83;103311.84;5172042;28;20033;-77
2022/03/18 02:27:16;;;;;;;1.38;1.33;;;;;;;6.08;60.40;103316.16;5179943;28;20588;-77
2022/03/18 02:29:47;;;;;;;1.95;1.85;;;;;;;6.03;60.09;103317.75;5148172;28;20029;-77
2022/03/18 02:32:18;;;;;;;2.28;2.08;;;;;;;6.03;60.88;103320.34;5156203;28;20038;-77
2022/03/18 02:34:48;;;;;;;0.90;0.88;;;;;;;5.98;60.55;103325.38;5164089;28;20030;-77
2022/03/18 02:37:19;;;;;;;0.88;0.88;;;;;;;5.97;60.97;103324.50;5158691;28;20514;-78
2022/03/18 02:39:49;;;;;;;6.18;3.45;;;;;;;5.96;61.05;103322.72;5167203;28;20026;-78
2022/03/18 02:42:20;;;;;;;0.40;0.40;;;;;;;5.93;60.74;103329.56;5144830;28;20463;-78
2022/03/18 02:44:50;;;;;;;0.55;0.55;;;;;;;5.89;60.53;103327.66;5155489;28;20096;-77
2022/03/18 02:47:21;;;;;;;0.50;0.50;;;;;;;5.89;61.18;103332.88;5155620;28;20458;-78
2022/03/18 02:49:52;;;;;;;2.25;2.03;;;;;;;5.85;61.00;103334.50;5155341;28;20113;-78
2022/03/18 02:52:25;;;;;;;0.80;0.80;;;;;;;5.88;61.26;103344.13;5175565;28;20339;-78
2022/03/18 02:54:56;;;;;;;0.50;0.50;;;;;;;5.82;60.34;103337.00;5170228;28;20040;-77
2022/03/18 02:57:26;;;;;;;0.82;0.82;;;;;;;5.83;61.13;103341.34;5158442;28;20038;-78
2022/03/18 02:59:57;;;;;;;0.98;0.98;;;;;;;5.80;61.35;103346.47;5149512;28;20115;-77
2022/03/18 03:02:27;;;;;;;0.50;0.50;;;;;;;5.82;61.05;103344.81;5171391;28;20050;-78
2022/03/18 03:08:00;;;;;;;0.57;0.57;;;;;;;5.74;61.46;103347.16;5106533;28;20057;-77
2022/03/18 03:10:33;;;;;;;0.60;0.60;;;;;;;5.73;61.14;103354.91;5145985;28;20042;-78
2022/03/18 03:13:10;;;;;;;1.98;1.88;;;;;;;5.71;61.03;103348.75;5145727;28;20049;-77
2022/03/18 03:15:40;;;;;;;0.98;0.98;;;;;;;5.68;61.16;103357.34;5178745;28;20038;-78
2022/03/18 03:18:13;;;;;;;0.50;0.50;;;;;;;5.66;61.04;103356.41;5163822;28;20053;-78
2022/03/18 03:20:44;;;;;;;1.65;1.55;;;;;;;5.65;61.24;103357.25;5165682;28;20029;-78
2022/03/18 03:23:15;;;;;;;0.85;0.85;;;;;;;5.61;60.81;103361.44;5157579;28;20050;-78
2022/03/18 03:25:46;;;;;;;2.50;1.65;;;;;;;5.56;61.12;103352.59;5161095;28;20112;-77
2022/03/18 03:28:19;;;;;;;0.63;0.63;;;;;;;5.48;60.62;103361.84;5171683;28;20053;-78
2022/03/18 03:30:51;;;;;;;0.52;0.52;;;;;;;5.50;61.31;103367.97;5155026;28;20659;-78
2022/03/18 03:33:22;;;;;;;1.42;1.33;;;;;;;5.40;61.13;103366.75;5158197;28;20499;-78
2022/03/18 03:35:53;;;;;;;0.57;0.57;;;;;;;5.44;61.00;103372.97;5179302;28;20109;-78
2022/03/18 03:38:27;;;;;;;0.65;0.65;;;;;;;5.40;60.82;103376.31;5169891;28;20050;-78
2022/03/18 03:41:02;;;;;;;;;;;;;;;5.40;61.17;103366.75;5164523;28;20386;-78
2022/03/18 03:43:32;;;;;;;1.08;1.08;;;;;;;5.40;61.21;103365.88;5171068;28;19992;-78
2022/03/18 03:46:03;;;;;;;1.02;1.02;;;;;;;5.35;61.26;103366.59;5166770;28;20049;-78
2022/03/18 03:48:33;;;;;;;1.98;1.38;;;;;;;5.35;61.26;103373.53;5161622;28;20251;-77
2022/03/18 03:51:04;;;;;;;4.47;2.15;;;;;;;5.33;61.20;103376.06;5159246;28;20509;-78
2022/03/18 03:53:34;;;;;;;1.33;1.27;;;;;;;5.31;61.46;103380.34;5178390;28;20517;-78
2022/03/18 03:56:05;;;;;;;0.75;0.75;;;;;;;5.28;61.39;103367.19;5170966;28;20034;-78
2022/03/18 03:58:39;;;;;;;0.75;0.75;;;;;;;5.21;61.28;103386.03;5162748;28;20351;-76
2022/03/18 04:01:09;;;;;;;;;;;;;;;5.22;61.33;103384.28;5156483;28;20038;-76
2022/03/18 04:03:40;;;;;;;0.73;0.73;;;;;;;5.22;61.32;103386.88;5172218;28;20455;-77
2022/03/18 04:06:10;;;;;;;1.20;1.20;;;;;;;5.18;61.00;103392.00;5164246;28;20375;-76
2022/03/18 04:08:40;;;;;;;0.88;0.88;;;;;;;5.10;60.93;103393.41;5174724;28;20046;-77
2022/03/18 04:11:14;;;;;;;2.17;1.48;;;;;;;5.13;60.93;103392.66;5167742;28;20180;-76
2022/03/18 04:13:44;;;;;;;2.90;2.55;;;;;;;5.12;61.39;103402.19;5189469;22;20346;-82
2022/03/18 04:16:15;;;;;;;0.60;0.60;;;;;;;5.12;61.54;103393.47;5219628;28;20037;-82
2022/03/18 04:18:46;;;;;;;1.48;1.42;;;;;;;5.15;61.78;103396.19;5207204;28;20033;-82
2022/03/18 04:21:16;;;;;;;0.40;0.40;;;;;;;5.12;60.86;103396.06;5206384;28;20021;-82
2022/03/18 04:23:50;;;;;;;0.30;0.30;;;;;;;5.11;61.56;103395.19;5212927;28;20136;-82
2022/03/18 04:26:20;;;;;;;0.68;0.68;;;;;;;5.09;61.22;103401.16;5189028;28;20044;-82
2022/03/18 04:28:51;;;;;;;0.82;0.82;;;;;;;5.05;61.15;103407.94;5206044;28;20098;-81
2022/03/18 04:31:22;;;;;;;1.88;1.75;;;;;;;5.04;61.21;103411.41;5188554;28;20271;-83
2022/03/18 04:33:53;;;;;;;0.85;0.85;;;;;;;5.04;61.24;103414.88;5175223;28;20128;-82
2022/03/18 04:36:23;;;;;;;1.80;1.70;;;;;;;5.08;61.46;103417.63;5174315;28;20049;-83
2022/03/18 04:38:57;;;;;;;1.20;0.93;;;;;;;4.98;61.43;103414.66;5172248;28;20465;-81
2022/03/18 04:41:27;;;;;;;0.40;0.40;;;;;;;4.88;60.71;103412.50;5208542;28;20318;-81
2022/03/18 04:43:58;;;;;;;0.95;0.95;;;;;;;4.88;61.61;103418.56;5184798;28;20041;-83
2022/03/18 04:46:31;;;;;;;1.13;1.02;;;;;;;4.86;61.31;103420.25;5177938;28;20033;-81
2022/03/18 04:49:04;;;;;;;1.30;1.20;;;;;;;4.85;60.80;103420.16;5203768;28;20026;-81
2022/03/18 04:51:34;;;;;;;1.35;1.30;;;;;;;4.86;61.57;103416.75;5210932;28;20054;-82
2022/03/18 04:54:05;;;;;;;0.68;0.68;;;;;;;4.83;61.21;103414.91;5187868;28;20103;-83
2022/03/18 04:59:27;;;;;;;0.43;0.43;;;;;;;4.69;60.93;103421.28;5202475;28;20021;-79
2022/03/18 05:01:58;;;;;;;0.90;0.90;;;;;;;4.69;61.32;103414.34;5199409;28;20105;-81
2022/03/18 05:04:28;;;;;;;1.30;1.30;;;;;;;4.69;61.04;103422.16;5191261;28;20041;-80
2022/03/18 05:06:58;;;;;;;1.40;1.30;;;;;;;4.66;61.15;103434.16;5185263;28;20045;-82
2022/03/18 05:09:32;;;;;;;1.27;1.25;;;;;;;4.27;63.58;103442.06;5175563;28;20076;-82
2022/03/18 05:12:02;;;;;;;5.85;3.88;;;;;;;4.53;61.75;103443.16;5177893;28;20037;-82
2022/03/18 05:14:35;;;;;;;2.95;1.17;;;;;;;4.44;61.85;103445.38;5194400;28;20045;-82
2022/03/18 05:17:08;;;;;;;0.40;0.40;;;;;;;4.49;62.42;103452.53;5197184;28;20038;-80
2022/03/18 05:19:39;;;;;;;1.33;1.33;;;;;;;4.53;61.40;103451.84;5189838;28;20037;-82
2022/03/18 05:22:09;;;;;;;0.65;0.65;;;;;;;4.64;62.61;103470.50;5205509;28;20097;-81
2022/03/18 05:24:40;;;;;;;1.58;1.42;;;;;;;4.41;61.80;103470.44;5184142;28;20049;-82
2022/03/18 05:27:14;;;;;;;1.90;1.75;;;;;;;4.50;62.27;103469.03;5199338;28;20108;-80
2022/03/18 05:29:44;;;;;;;1.20;1.20;;;;;;;4.49;61.53;103475.06;5191802;28;20022;-82
2022/03/18 05:32:15;;;;;;;4.20;2.10;;;;;;;4.48;62.35;103475.88;5188392;28;20105;-80
2022/03/18 05:34:46;;;;;;;1.00;1.00;;;;;;;4.48;62.00;103476.75;5188476;28;20456;-82
2022/03/18 05:37:19;;;;;;;3.75;1.02;;;;;;;4.47;62.09;103481.91;5175715;28;20148;-82
2022/03/18 05:39:50;;;;;;;2.17;1.45;;;;;;;4.41;61.78;103483.44;5189894;28;20132;-82
2022/03/18 05:42:20;;;;;;;1.33;1.25;;;;;;;4.40;61.79;103486.84;5172084;28;20069;-80
2022/03/18 05:44:51;;;;;;;1.25;1.15;;;;;;;4.40;61.94;103501.53;5170663;28;20063;-80
2022/03/18 05:47:21;;;;;;;0.75;0.73;;;;;;;4.39;61.53;103499.75;5204607;28;20379;-80
2022/03/18 05:49:51;;;;;;;2.28;1.45;;;;;;;4.37;61.82;103507.50;5199274;28;20026;-82
2022/03/18 05:52:22;;;;;;;0.60;0.60;;;;;;;4.37;61.72;103514.44;5172973;28;20099;-82
2022/03/18 05:54:56;;;;;;;0.70;0.70;;;;;;;4.37;62.15;103515.31;5207231;28;20089;-82
2022/03/18 05:57:27;;;;;;;0.50;0.50;;;;;;;4.32;62.02;103519.41;5203627;28;20108;-82
2022/03/18 05:59:58;;;;;;;1.40;1.40;;;;;;;4.24;61.75;103534.66;5192009;28;20116;-82
2022/03/18 06:02:29;;;;;;;0.57;0.57;;;;;;;4.25;61.48;103541.66;5194786;28;20072;-82
2022/03/18 06:05:00;;;;;;;1.85;1.75;;;;;;;4.23;61.44;103540.69;5186473;28;20033;-81
2022/03/18 06:07:31;;;;;;;0.50;0.50;;;;;;;4.23;61.92;103543.28;5206262;28;20041;-82
2022/03/18 06:12:50;;;;;;;0.63;0.63;;;;;;;4.23;62.11;103529.41;5205237;28;20376;-83
2022/03/18 06:15:21;;;;;;;0.98;0.98;;;;;;;4.25;62.11;103530.38;5199279;28;20029;-82
2022/03/18 06:17:51;;;;;;;0.40;0.40;;;;;;;4.24;62.02;103537.25;5177889;28;20065;-81
2022/03/18 06:20:22;;;;;;;0.30;0.30;;;;;;;4.25;62.59;103540.78;5199528;28;20032;-81
2022/03/18 06:22:52;;;;;;;0.85;0.85;;;;;;;4.27;61.79;103552.09;5204964;28;20037;-81
2022/03/18 06:25:23;;;;;;;0.50;0.50;;;;;;;4.25;61.93;103554.63;5172398;28;20057;-81
2022/03/18 06:27:54;;;;;;;0.93;0.93;;;;;;;4.20;62.00;103555.25;5184965;28;20054;-81
2022/03/18 06:30:25;;;;;;;1.42;1.42;;;;;;;4.21;62.05;103551.84;5197591;28;20044;-80
2022/03/18 06:32:55;;;;;;;1.27;1.17;;;;;;;4.20;62.04;103563.03;5179099;28;20038;-82
2022/03/18 06:35:26;;;;;;;0.98;0.98;;;;;;;4.18;62.79;103562.09;5185883;28;20548;-81
2022/03/18 06:37:57;;;;;;;0.73;0.73;;;;;;;4.14;62.38;103565.38;5207357;28;20132;-81
2022/03/18 06:40:31;;;;;;;1.02;1.02;;;;;;;4.11;62.35;103563.53;5203473;28;20084;-81
2022/03/18 06:43:02;;;;;;;2.05;1.70;;;;;;;4.13;62.62;103563.59;5199578;28;20042;-80
2022/03/18 06:45:32;;;;;;;1.30;1.20;;;;;;;4.07;62.85;103572.91;5205481;28;20037;-82
2022/03/18 06:48:03;;;;;;;0.40;0.40;;;;;;;4.08;62.24;103572.09;5170638;28;20037;-80
2022/03/18 06:50:34;;;;;;;0.70;0.70;;;;;;;4.12;62.69;103577.41;5189781;28;20032;-80
2022/03/18 06:53:05;;;;;;;0.60;0.60;;;;;;;4.12;63.06;103582.59;5187709;28;21079;-81
2022/03/18 06:55:35;;;;;;;1.25;1.20;;;;;;;4.14;62.45;103570.56;5216598;28;20068;-81
2022/03/18 06:58:09;;;;;;;0.73;0.73;;;;;;;4.15;62.46;103587.94;5166512;28;20033;-79
2022/03/18 07:00:39;;;;;;;1.27;1.25;;;;;;;4.14;63.17;103586.16;5200600;28;20536;-79
2022/03/18 07:03:10;;;;;;;0.93;0.93;;;;;;;4.15;62.70;103595.75;5216972;28;20037;-81
2022/03/18 07:05:40;;;;;;;0.75;0.75;;;;;;;4.21;63.31;103583.03;5208162;28;20156;-80
2022/03/18 07:08:12;;;;;;;1.23;1.17;;;;;;;4.17;63.53;103595.00;5169793;28;20052;-82
2022/03/18 07:10:43;;;;;;;0.98;0.98;;;;;;;4.16;62.38;103600.13;5209075;28;20029;-83
2022/03/18 07:13:15;;;;;;;0.85;0.85;;;;;;;4.10;63.84;103592.94;5199073;28;20063;-80
2022/03/18 07:15:45;;;;;;;0.90;0.90;;;;;;;4.12;64.31;103598.19;5184923;28;20049;-79
2022/03/18 07:18:16;;;;;;;9.73;2.67;;;;;;;4.03;64.56;103596.94;5168278;28;20139;-79
2022/03/18 07:20:46;;;;;;;0.88;0.88;;;;;;;4.08;64.96;103597.16;5194619;28;20177;-84
2022/03/18 07:23:21;;;;;;;0.50;0.50;;;;;;;4.20;63.50;103597.75;5177700;28;20123;-83
2022/03/18 07:25:52;;;;;;;2.05;1.95;;;;;;;4.17;63.73;103601.91;5172301;28;20025;-82
2022/03/18 07:28:22;;;;;;;1.35;1.27;;;;;;;4.18;64.34;103599.38;5198405;28;20127;-81
2022/03/18 07:30:53;;;;;;;0.95;0.95;;;;;;;4.20;65.18;103587.34;5183823;28;20124;-81
2022/03/18 07:33:23;;;;;;;2.00;1.85;;;;;;;4.19;65.21;103584.66;5195537;28;20538;-80
2022/03/18 07:35:56;;;;;;;0.70;0.70;;;;;;;4.26;65.47;103586.72;5171642;28;20049;-79
2022/03/18 07:38:27;;;;;;;0.60;0.60;;;;;;;4.23;67.13;103584.00;5173630;28;20048;-79
2022/03/18 07:40:57;;;;;;;0.65;0.65;;;;;;;4.24;69.69;103577.97;5174430;28;20887;-79
2022/03/18 07:43:28;;;;;;;1.23;1.23;;;;;;;4.37;66.88;103584.63;5188526;28;20034;-78
2022/03/18 07:46:01;;;;;;;0.98;0.98;;;;;;;4.44;67.04;103588.34;5211555;28;20029;-80
2022/03/18 07:48:39;;;;;;;1.02;0.98;;;;;;;4.43;69.38;103584.88;5173980;28;20365;-80
2022/03/18 07:51:13;;;;;;;0.70;0.70;;;;;;;4.53;66.84;103588.78;5187896;28;20030;-79
2022/03/18 07:53:44;;;;;;;1.33;1.30;;;;;;;4.64;67.39;103587.53;5181950;28;20053;-81
2022/03/18 07:56:15;;;;;;;0.40;0.40;;;;;;;4.55;71.58;103594.94;5172119;28;20421;-81
2022/03/18 07:58:45;;;;;;;0.90;0.90;;;;;;;4.73;70.08;103590.53;5192081;28;20056;-82
2022/03/18 08:01:16;;;;;;;0.60;0.60;;;;;;;4.68;70.85;103589.44;5223521;28;20233;-82
2022/03/18 08:03:46;;;;;;;0.60;0.60;;;;;;;4.80;67.67;103593.41;5195335;28;20040;-82
2022/03/18 08:06:17;;;;;;;0.88;0.88;;;;;;;4.90;67.34;103579.97;5183301;28;20030;-80
2022/03/18 08:08:47;;;;;;;11.27;2.15;;;;;;;4.88;69.31;103581.63;5180328;28;20049;-82
2022/03/18 08:11:18;;;;;;;0.57;0.57;;;;;;;5.02;67.58;103583.09;5184852;28;20030;-83
2022/03/18 08:13:49;;;;;;;0.82;0.82;;;;;;;5.09;67.30;103586.84;5195653;28;20377;-83
2022/03/18 08:16:22;;;;;;;0.52;0.52;;;;;;;5.06;70.64;103588.44;5195092;28;20121;-83
2022/03/18 08:18:56;;;;;;;0.50;0.50;;;;;;;5.04;69.97;103585.78;5195042;28;20066;-83
2022/03/18 08:21:32;;;;;;;1.35;0.88;;;;;;;5.08;71.05;103597.19;5201035;28;20069;-83
2022/03/18 08:24:03;;;;;;;1.02;1.02;;;;;;;5.17;69.80;103598.47;5200913;28;20265;-81
2022/03/18 08:26:36;;;;;;;0.70;0.70;;;;;;;5.38;68.62;103599.28;5179444;28;20022;-82
2022/03/18 08:29:09;;;;;;;4.65;1.13;;;;;;;5.37;69.82;103603.63;5214974;28;20060;-84
2022/03/18 08:31:40;;;;;;;0.85;0.85;;;;;;;5.48;68.63;103617.94;5186918;28;20045;-84
2022/03/18 08:34:10;;;;;;;0.85;0.85;;;;;;;5.54;70.23;103606.88;5185155;28;20036;-83
2022/03/18 08:36:41;;;;;;;0.45;0.45;;;;;;;5.72;70.96;103608.44;5184237;28;20040;-82
2022/03/18 08:39:12;;;;;;;1.25;1.15;;;;;;;5.76;69.14;103615.53;5193178;28;20033;-80
2022/03/18 08:41:43;;;;;;;0.30;0.30;;;;;;;5.79;69.70;103615.69;5189309;28;20037;-82
2022/03/18 08:44:15;;;;;;;0.95;0.60;;;;;;;5.99;68.74;103619.09;5194544;28;20030;-83
2022/03/18 08:46:47;;;;;;;0.70;0.70;;;;;;;6.02;68.22;103620.91;5191334;28;20022;-82
2022/03/18 08:49:17;;;;;;;6.88;1.13;;;;;;;6.13;67.94;103633.53;5194351;28;20289;-82
2022/03/18 08:51:48;;;;;;;0.43;0.43;;;;;;;6.08;68.56;103640.31;5225138;28;20105;-82
2022/03/18 08:54:21;;;;;;;0.68;0.68;;;;;;;6.05;68.44;103641.91;5190623;28;20042;-80
2022/03/18 08:56:52;;;;;;;1.92;1.13;;;;;;;6.27;67.30;103638.41;5225545;28;20566;-83
2022/03/18 08:59:24;;;;;;;0.50;0.50;;;;;;;6.26;67.43;103639.22;5214018;28;20060;-80
2022/03/18 09:02:18;;;;;;;0.40;0.40;;;;;;;6.32;67.71;103644.66;5191654;28;20058;-79
2022/03/18 09:04:50;;;;;;;0.47;0.47;;;;;;;6.42;67.07;103651.13;5214727;28;20061;-84
2022/03/18 09:07:20;;;;;;;0.75;0.75;;;;;;;6.45;66.98;103654.72;5193395;28;20523;-80
2022/03/18 09:09:51;;;;;;;2.38;1.20;;;;;;;6.39;67.29;103651.03;5191444;28;20093;-80
2022/03/18 09:12:21;;;;;;;0.70;0.70;;;;;;;6.56;66.61;103654.25;5192270;28;20576;-79
2022/03/18 09:14:52;;;;;;;0.32;0.32;;;;;;;6.63;66.57;103655.38;5171248;28;20055;-83
2022/03/18 09:17:26;;;;;;;0.35;0.35;;;;;;;6.76;65.93;103657.56;5200438;28;20045;-81
2022/03/18 09:20:02;;;;;;;0.77;0.77;;;;;;;6.73;65.80;103660.09;5171150;28;20026;-82
2022/03/18 09:22:35;;;;;;;0.95;0.82;;;;;;;6.67;66.00;103660.75;5188940;28;20065;-79
2022/03/18 09:25:09;;;;;;;0.60;0.60;;;;;;;6.82;65.72;103668.22;5185347;28;20072;-81
2022/03/18 09:27:40;;;;;;;0.38;0.38;;;;;;;6.87;64.50;103677.13;5185576;28;20513;-78
2022/03/18 09:30:12;;;;;;;1.17;0.77;;;;;;;6.99;63.38;103681.00;5200938;28;20025;-80
2022/03/18 09:32:43;;;;;;;1.85;1.75;;;;;;;7.18;61.43;103678.19;5169516;28;20057;-79
2022/03/18 09:35:16;;;;;;;1.67;1.58;;;;;;;7.19;61.97;103684.31;5183704;28;20029;-81
2022/03/18 09:37:47;;;;;;;0.40;0.40;;;;;;;7.20;61.47;103686.06;5203312;28;20085;-79
2022/03/18 09:40:17;;;;;;;0.52;0.52;;;;;;;7.27;61.89;103690.69;5191776;28;20054;-82
2022/03/18 09:43:05;;;;;;;0.40;0.40;;;;;;;7.46;60.63;103696.53;5178509;28;20049;-78
2022/03/18 09:45:38;;;;;;;0.73;0.73;;;;;;;7.52;60.42;103692.41;5183910;28;20056;-80
2022/03/18 09:48:10;;;;;;;0.30;0.30;;;;;;;7.56;60.46;103685.56;5197466;28;20124;-79
2022/03/18 09:50:42;;;;;;;0.68;0.68;;;;;;;7.65;59.57;103684.97;5196942;28;20082;-79
2022/03/18 09:53:13;;;;;;;0.50;0.50;;;;;;;7.49;60.55;103688.81;5170044;28;20049;-80
2022/03/18 09:55:44;;;;;;;1.02;1.02;;;;;;;7.61;60.11;103704.00;5184027;28;20432;-79
2022/03/18 09:58:14;;;;;;;0.22;0.22;;;;;;;7.64;60.85;103704.13;5183356;28;20053;-79
2022/03/18 10:00:51;;;;;;;4.22;0.95;;;;;;;7.79;59.87;103696.78;5169803;28;20025;-80
2022/03/18 10:03:21;;;;;;;0.60;0.60;;;;;;;7.99;59.45;103696.50;5174162;28;20772;-79
2022/03/18 10:05:59;;;;;;;0.93;0.65;;;;;;;7.96;59.63;103692.06;5205384;28;20033;-79
2022/03/18 10:08:36;;;;;;;0.40;0.40;;;;;;;7.95;59.94;103694.66;5206119;28;20037;-80
2022/03/18 10:11:13;;;;;;;1.00;1.00;;;;;;;7.93;60.01;103693.69;5196375;28;20025;-80
2022/03/18 10:13:57;;;;;;;3.30;1.27;;;;;;;7.96;59.44;103696.44;5217831;22;20041;-77
2022/03/18 10:16:34;;;;;;;;;;;;;;;8.23;58.64;103691.16;5187277;28;20037;-77
2022/03/18 10:19:12;;;;;;;1.73;1.00;;;;;;;8.30;56.62;103690.50;5213941;28;20388;-76
2022/03/18 10:21:49;;;;;;;0.30;0.30;;;;;;;8.34;56.40;103691.47;5207899;28;20033;-78
2022/03/18 10:24:27;;;;;;;0.40;0.40;;;;;;;8.54;56.35;103683.38;5197774;28;20033;-77
2022/03/18 10:27:20;;;;;;;3.50;1.70;;;;;;;8.52;56.46;103685.06;5192394;28;20177;-77
2022/03/18 10:29:53;;;;;;;0.40;0.40;;;;;;;8.55;54.35;103687.78;5179043;28;20037;-77
2022/03/18 10:32:31;;;;;;;0.40;0.40;;;;;;;8.80;53.09;103687.59;5191467;28;20413;-76
2022/03/18 10:37:59;;;;;;;1.38;0.93;;;;;;;8.94;51.02;103684.50;5179501;28;20040;-78
2022/03/18 10:40:35;;;;;;;1.55;1.30;;;;;;;8.93;51.89;103682.72;5177010;28;20025;-79
2022/03/18 10:43:07;;;;;;;0.30;0.30;;;;;;;8.95;53.28;103684.53;5200714;28;20065;-79
2022/03/18 10:45:37;;;;;;;3.63;1.50;;;;;;;9.18;50.77;103684.25;5201439;28;20190;-79
2022/03/18 10:48:15;;;;;;;0.28;0.28;;;;;;;9.22;48.92;103687.81;5177388;28;20037;-78
2022/03/18 10:51:00;;;;;;;0.30;0.30;;;;;;;9.21;50.11;103672.97;5187858;28;20068;-80
2022/03/18 10:53:32;;;;;;;0.30;0.30;;;;;;;9.29;51.03;103676.69;5189576;28;20498;-78
2022/03/18 10:56:04;;;;;;;0.57;0.57;;;;;;;9.50;48.92;103688.53;5185038;28;20025;-77
2022/03/18 10:58:36;;;;;;;0.30;0.30;;;;;;;9.47;48.24;103678.88;5185210;28;20048;-78
2022/03/18 11:01:06;;;;;;;0.40;0.40;;;;;;;9.37;47.70;103676.88;5189342;28;20027;-79
2022/03/18 11:03:37;;;;;;;0.40;0.40;;;;;;;9.53;47.13;103683.41;5187755;28;20046;-78
2022/03/18 11:06:07;;;;;;;0.90;0.90;;;;;;;9.66;46.84;103679.34;5185810;28;20667;-77
2022/03/18 11:08:44;;;;;;;0.75;0.75;;;;;;;9.76;46.26;103690.09;5187179;28;20075;-77
2022/03/18 11:11:20;;;;;;;0.95;0.93;;;;;;;9.68;45.75;103689.00;5191227;28;20032;-78
2022/03/18 11:13:59;;;;;;;0.40;0.40;;;;;;;9.85;47.14;103680.66;5166752;28;20046;-79
2022/03/18 11:16:35;;;;;;;0.40;0.40;;;;;;;9.63;47.64;103680.13;5168774;28;20076;-76
2022/03/18 11:19:09;;;;;;;3.00;0.95;;;;;;;9.98;44.63;103687.06;5190366;28;20033;-77
2022/03/18 11:21:40;;;;;;;0.40;0.40;;;;;;;10.04;44.66;103681.97;5189063;28;20026;-80
2022/03/18 11:24:14;;;;;;;1.02;0.75;;;;;;;10.14;43.05;103683.94;5196725;28;20029;-78
2022/03/18 11:26:47;;;;;;;0.32;0.32;;;;;;;10.21;44.84;103683.22;5186943;28;20829;-78
2022/03/18 11:29:24;;;;;;;0.60;0.60;;;;;;;10.24;45.28;103683.31;5194404;28;20389;-78
2022/03/18 11:32:10;;;;;;;0.47;0.47;;;;;;;10.29;45.99;103688.63;5189144;28;20046;-77
2022/03/18 11:34:49;;;;;;;0.30;0.30;;;;;;;10.42;45.91;103681.06;5190745;28;20029;-78
2022/03/18 11:37:20;;;;;;;0.30;0.30;;;;;;;10.45;46.68;103675.88;5185503;28;20049;-77
2022/03/18 11:39:51;;;;;;;4.90;1.65;;;;;;;10.53;44.92;103682.19;5177839;28;20393;-77
2022/03/18 11:42:22;;;;;;;0.35;0.35;;;;;;;10.54;46.11;103681.31;5193758;28;20047;-77
2022/03/18 11:44:58;;;;;;;0.30;0.30;;;;;;;10.66;46.55;103673.69;5186373;28;20030;-78
2022/03/18 11:47:28;;;;;;;0.22;0.22;;;;;;;10.71;45.04;103677.28;5189316;28;20037;-78
2022/03/18 11:50:02;;;;;;;1.00;1.00;;;;;;;10.83;46.22;103674.00;5203290;28;20547;-77
2022/03/18 11:52:33;;;;;;;0.68;0.68;;;;;;;11.00;45.42;103676.97;5167462;28;20044;-78
2022/03/18 11:55:09;;;;;;;0.32;0.32;;;;;;;11.00;44.60;103668.19;5190084;28;20029;-78
2022/03/18 11:57:46;;;;;;;0.40;0.40;;;;;;;11.00;42.91;103661.22;5183293;28;20516;-79
2022/03/18 12:00:28;;;;;;;0.30;0.30;;;;;;;10.88;43.79;103663.59;5189007;28;20032;-78
2022/03/18 12:03:04;;;;;;;0.68;0.68;;;;;;;11.04;40.24;103662.16;5191059;28;20037;-79
2022/03/18 12:05:53;;;;;;;0.43;0.43;;;;;;;11.14;43.55;103650.03;5205409;28;20064;-77
2022/03/18 12:08:51;;;;;;;0.40;0.40;;;;;;;11.34;41.68;103659.16;5186167;28;20066;-77
2022/03/18 12:11:31;;;;;;;0.65;0.65;;;;;;;11.40;41.68;103652.22;5185178;28;20057;-77
2022/03/18 12:14:03;;;;;;;2.30;1.08;;;;;;;11.49;42.20;103640.09;5190537;28;20045;-76
2022/03/18 12:16:33;;;;;;;0.88;0.88;;;;;;;11.53;42.32;103643.66;5170343;28;20022;-78
2022/03/18 12:19:11;;;;;;;0.30;0.30;;;;;;;11.60;43.37;103645.56;5187790;28;20048;-78